sensor_id;sensor_type;location;lat;lon;timestamp;pressure;altitude;pressure_sealevel;temperature;humidity
59103;BME280;43999;51.660;5.616;2023-05-21T00:00:38;101636.84;;;13.58;100.00
59103;BME280;43999;51.660;5.616;2023-05-21T00:03:05;101643.72;;;13.61;100.00
59103;BME280;43999;51.660;5.616;2023-05-21T00:05:42;101644.81;;;13.57;100.00
59103;BME280;43999;51.660;5.616;2023-05-21T00:08:13;101637.31;;;13.49;100.00
59103;BME280;43999;51.660;5.616;2023-05-21T00:10:41;101633.25;;;13.43;100.00
59103;BME280;43999;51.660;5.616;2023-05-21T00:13:08;101635.03;;;13.43;100.00
59103;BME280;43999;51.660;5.616;2023-05-21T00:15:36;101633.50;;;13.39;100.00
59103;BME280;43999;51.660;5.616;2023-05-21T00:18:04;101618.91;;;13.32;100.00
59103;BME280;43999;51.660;5.616;2023-05-21T00:20:32;101619.84;;;13.31;100.00
59103;BME280;43999;51.660;5.616;2023-05-21T00:23:00;101626.97;;;13.28;100.00
59103;BME280;43999;51.660;5.616;2023-05-21T00:25:31;101617.47;;;13.26;100.00
59103;BME280;43999;51.660;5.616;2023-05-21T00:27:58;101613.22;;;13.23;100.00
59103;BME280;43999;51.660;5.616;2023-05-21T00:30:25;101610.06;;;13.17;100.00
59103;BME280;43999;51.660;5.616;2023-05-21T00:32:53;101614.31;;;13.19;100.00
59103;BME280;43999;51.660;5.616;2023-05-21T00:35:20;101614.38;;;13.18;100.00
59103;BME280;43999;51.660;5.616;2023-05-21T00:37:48;101604.09;;;13.13;100.00
59103;BME280;43999;51.660;5.616;2023-05-21T00:40:18;101615.22;;;13.18;100.00
59103;BME280;43999;51.660;5.616;2023-05-21T00:42:45;101611.91;;;13.15;100.00
59103;BME280;43999;51.660;5.616;2023-05-21T00:45:14;101610.31;;;13.12;100.00
59103;BME280;43999;51.660;5.616;2023-05-21T00:47:43;101614.72;;;13.12;100.00
59103;BME280;43999;51.660;5.616;2023-05-21T00:50:12;101600.03;;;13.07;100.00
59103;BME280;43999;51.660;5.616;2023-05-21T00:52:42;101603.66;;;13.05;100.00
59103;BME280;43999;51.660;5.616;2023-05-21T00:55:12;101598.56;;;13.02;100.00
59103;BME280;43999;51.660;5.616;2023-05-21T00:57:39;101607.38;;;13.01;100.00
59103;BME280;43999;51.660;5.616;2023-05-21T01:00:09;101597.97;;;12.97;100.00
59103;BME280;43999;51.660;5.616;2023-05-21T01:02:37;101598.97;;;12.94;100.00
59103;BME280;43999;51.660;5.616;2023-05-21T01:05:05;101605.94;;;12.95;100.00
59103;BME280;43999;51.660;5.616;2023-05-21T01:07:36;101595.56;;;12.92;100.00
59103;BME280;43999;51.660;5.616;2023-05-21T01:10:09;101593.25;;;12.86;100.00
59103;BME280;43999;51.660;5.616;2023-05-21T01:12:38;101603.69;;;12.87;100.00
59103;BME280;43999;51.660;5.616;2023-05-21T01:15:11;101606.41;;;12.86;100.00
59103;BME280;43999;51.660;5.616;2023-05-21T01:17:40;101595.97;;;12.84;100.00
59103;BME280;43999;51.660;5.616;2023-05-21T01:20:09;101597.88;;;12.81;100.00
59103;BME280;43999;51.660;5.616;2023-05-21T01:25:22;101605.84;;;12.79;100.00
59103;BME280;43999;51.660;5.616;2023-05-21T01:27:50;101593.81;;;12.75;100.00
59103;BME280;43999;51.660;5.616;2023-05-21T01:30:21;101588.53;;;12.75;100.00
59103;BME280;43999;51.660;5.616;2023-05-21T01:33:03;101595.41;;;12.78;100.00
59103;BME280;43999;51.660;5.616;2023-05-21T01:38:51;101589.22;;;12.79;100.00
59103;BME280;43999;51.660;5.616;2023-05-21T01:41:33;101588.22;;;12.81;100.00
59103;BME280;43999;51.660;5.616;2023-05-21T01:44:05;101586.50;;;12.80;100.00
59103;BME280;43999;51.660;5.616;2023-05-21T01:46:35;101581.03;;;12.85;100.00
59103;BME280;43999;51.660;5.616;2023-05-21T01:49:05;101585.38;;;12.86;100.00
59103;BME280;43999;51.660;5.616;2023-05-21T01:51:35;101585.19;;;12.89;100.00
59103;BME280;43999;51.660;5.616;2023-05-21T01:54:03;101579.22;;;12.85;100.00
59103;BME280;43999;51.660;5.616;2023-05-21T01:56:30;101581.69;;;12.88;100.00
59103;BME280;43999;51.660;5.616;2023-05-21T01:59:00;101575.53;;;12.89;100.00
59103;BME280;43999;51.660;5.616;2023-05-21T02:01:27;101571.97;;;12.90;100.00
59103;BME280;43999;51.660;5.616;2023-05-21T02:03:56;101580.63;;;12.93;100.00
59103;BME280;43999;51.660;5.616;2023-05-21T02:06:24;101577.00;;;12.95;100.00
59103;BME280;43999;51.660;5.616;2023-05-21T02:08:52;101568.16;;;12.96;100.00
59103;BME280;43999;51.660;5.616;2023-05-21T02:11:19;101572.56;;;12.96;100.00
59103;BME280;43999;51.660;5.616;2023-05-21T02:13:48;101568.16;;;12.96;100.00
59103;BME280;43999;51.660;5.616;2023-05-21T02:16:15;101570.69;;;12.98;100.00
59103;BME280;43999;51.660;5.616;2023-05-21T02:18:43;101565.44;;;12.98;100.00
59103;BME280;43999;51.660;5.616;2023-05-21T02:21:10;101559.94;;;13.02;100.00
59103;BME280;43999;51.660;5.616;2023-05-21T02:23:38;101566.75;;;13.06;100.00
59103;BME280;43999;51.660;5.616;2023-05-21T02:26:06;101570.13;;;13.08;100.00
59103;BME280;43999;51.660;5.616;2023-05-21T02:28:34;101561.50;;;13.06;100.00
59103;BME280;43999;51.660;5.616;2023-05-21T02:31:02;101572.53;;;13.13;100.00
59103;BME280;43999;51.660;5.616;2023-05-21T02:33:29;101569.91;;;13.13;100.00
59103;BME280;43999;51.660;5.616;2023-05-21T02:35:58;101572.38;;;13.16;100.00
59103;BME280;43999;51.660;5.616;2023-05-21T02:38:26;101572.19;;;13.19;100.00
59103;BME280;43999;51.660;5.616;2023-05-21T02:40:53;101571.19;;;13.22;100.00
59103;BME280;43999;51.660;5.616;2023-05-21T02:43:21;101574.59;;;13.24;100.00
59103;BME280;43999;51.660;5.616;2023-05-21T02:45:48;101569.25;;;13.25;100.00
59103;BME280;43999;51.660;5.616;2023-05-21T02:48:17;101560.50;;;13.25;100.00
59103;BME280;43999;51.660;5.616;2023-05-21T02:50:44;101571.63;;;13.30;100.00
59103;BME280;43999;51.660;5.616;2023-05-21T02:53:12;101565.44;;;13.31;100.00
59103;BME280;43999;51.660;5.616;2023-05-21T02:55:39;101565.44;;;13.31;100.00
59103;BME280;43999;51.660;5.616;2023-05-21T02:58:08;101564.44;;;13.34;100.00
59103;BME280;43999;51.660;5.616;2023-05-21T03:00:35;101562.72;;;13.33;100.00
59103;BME280;43999;51.660;5.616;2023-05-21T03:03:03;101553.81;;;13.35;100.00
59103;BME280;43999;51.660;5.616;2023-05-21T03:05:30;101565.81;;;13.41;100.00
59103;BME280;43999;51.660;5.616;2023-05-21T03:07:58;101553.66;;;13.38;100.00
59103;BME280;43999;51.660;5.616;2023-05-21T03:10:25;101547.81;;;13.33;100.00
59103;BME280;43999;51.660;5.616;2023-05-21T03:12:53;101545.00;;;13.36;100.00
59103;BME280;43999;51.660;5.616;2023-05-21T03:15:21;101551.81;;;13.40;100.00
59103;BME280;43999;51.660;5.616;2023-05-21T03:17:50;101552.66;;;13.41;100.00
59103;BME280;43999;51.660;5.616;2023-05-21T03:20:20;101551.81;;;13.40;100.00
59103;BME280;43999;51.660;5.616;2023-05-21T03:22:48;101539.91;;;13.33;100.00
59103;BME280;43999;51.660;5.616;2023-05-21T03:25:15;101548.31;;;13.40;100.00
59103;BME280;43999;51.660;5.616;2023-05-21T03:27:43;101540.59;;;13.37;100.00
59103;BME280;43999;51.660;5.616;2023-05-21T03:30:36;101544.31;;;13.33;100.00
59103;BME280;43999;51.660;5.616;2023-05-21T03:33:40;101533.94;;;13.30;100.00
59103;BME280;43999;51.660;5.616;2023-05-21T03:36:22;101530.53;;;13.27;100.00
59103;BME280;43999;51.660;5.616;2023-05-21T03:38:49;101539.38;;;13.26;100.00
59103;BME280;43999;51.660;5.616;2023-05-21T03:41:17;101536.91;;;13.23;100.00
59103;BME280;43999;51.660;5.616;2023-05-21T03:43:49;101542.25;;;13.22;100.00
59103;BME280;43999;51.660;5.616;2023-05-21T03:46:21;101531.88;;;13.19;100.00
59103;BME280;43999;51.660;5.616;2023-05-21T03:49:00;101538.06;;;13.18;100.00
59103;BME280;43999;51.660;5.616;2023-05-21T03:51:30;101543.41;;;13.16;100.00
59103;BME280;43999;51.660;5.616;2023-05-21T03:53:58;101546.91;;;13.17;100.00
59103;BME280;43999;51.660;5.616;2023-05-21T03:56:26;101541.91;;;13.12;100.00
59103;BME280;43999;51.660;5.616;2023-05-21T03:58:56;101542.75;;;13.13;100.00
59103;BME280;43999;51.660;5.616;2023-05-21T04:01:24;101540.94;;;13.13;100.00
59103;BME280;43999;51.660;5.616;2023-05-21T04:03:53;101539.44;;;13.09;100.00
59103;BME280;43999;51.660;5.616;2023-05-21T04:06:22;101534.34;;;13.06;100.00
59103;BME280;43999;51.660;5.616;2023-05-21T04:08:49;101542.16;;;13.07;100.00
59103;BME280;43999;51.660;5.616;2023-05-21T04:11:18;101545.78;;;13.05;100.00
59103;BME280;43999;51.660;5.616;2023-05-21T04:13:45;101556.22;;;13.06;100.00
59103;BME280;43999;51.660;5.616;2023-05-21T04:16:14;101550.19;;;13.04;100.00
59103;BME280;43999;51.660;5.616;2023-05-21T04:18:49;101546.69;;;13.04;100.00
59103;BME280;43999;51.660;5.616;2023-05-21T04:21:22;101548.41;;;13.05;100.00
59103;BME280;43999;51.660;5.616;2023-05-21T04:23:49;101535.41;;;13.02;100.00
59103;BME280;43999;51.660;5.616;2023-05-21T04:26:26;101548.50;;;13.03;100.00
59103;BME280;43999;51.660;5.616;2023-05-21T04:28:56;101552.03;;;13.02;100.00
59103;BME280;43999;51.660;5.616;2023-05-21T04:31:26;101547.72;;;13.01;100.00
59103;BME280;43999;51.660;5.616;2023-05-21T04:33:53;101549.41;;;13.02;100.00
59103;BME280;43999;51.660;5.616;2023-05-21T04:36:20;101559.09;;;13.02;100.00
59103;BME280;43999;51.660;5.616;2023-05-21T04:38:48;101547.81;;;13.00;100.00
59103;BME280;43999;51.660;5.616;2023-05-21T04:41:15;101543.41;;;13.00;100.00
59103;BME280;43999;51.660;5.616;2023-05-21T04:43:45;101548.72;;;12.99;100.00
59103;BME280;43999;51.660;5.616;2023-05-21T04:46:13;101564.34;;;13.02;100.00
59103;BME280;43999;51.660;5.616;2023-05-21T04:48:41;101560.09;;;12.99;100.00
59103;BME280;43999;51.660;5.616;2023-05-21T04:51:09;101552.38;;;12.96;100.00
59103;BME280;43999;51.660;5.616;2023-05-21T04:53:36;101554.06;;;12.97;100.00
59103;BME280;43999;51.660;5.616;2023-05-21T04:56:05;101553.31;;;12.95;100.00
59103;BME280;43999;51.660;5.616;2023-05-21T04:58:33;101560.25;;;12.96;100.00
59103;BME280;43999;51.660;5.616;2023-05-21T05:01:01;101563.69;;;12.98;100.00
59103;BME280;43999;51.660;5.616;2023-05-21T05:03:30;101558.41;;;12.98;100.00
59103;BME280;43999;51.660;5.616;2023-05-21T05:05:58;101560.19;;;12.98;100.00
59103;BME280;43999;51.660;5.616;2023-05-21T05:08:26;101555.00;;;12.96;100.00
59103;BME280;43999;51.660;5.616;2023-05-21T05:10:53;101555.63;;;13.01;100.00
59103;BME280;43999;51.660;5.616;2023-05-21T05:13:21;101556.53;;;13.00;100.00
59103;BME280;43999;51.660;5.616;2023-05-21T05:15:48;101552.22;;;12.99;100.00
59103;BME280;43999;51.660;5.616;2023-05-21T05:18:18;101538.38;;;12.96;100.00
59103;BME280;43999;51.660;5.616;2023-05-21T05:20:46;101553.75;;;13.03;100.00
59103;BME280;43999;51.660;5.616;2023-05-21T05:23:14;101550.19;;;13.04;100.00
59103;BME280;43999;51.660;5.616;2023-05-21T05:25:42;101550.88;;;13.08;100.00
59103;BME280;43999;51.660;5.616;2023-05-21T05:28:09;101547.09;;;13.14;100.00
59103;BME280;43999;51.660;5.616;2023-05-21T05:30:37;101551.16;;;13.19;100.00
59103;BME280;43999;51.660;5.616;2023-05-21T05:33:16;101544.38;;;13.15;100.00
59103;BME280;43999;51.660;5.616;2023-05-21T05:35:43;101547.44;;;13.23;100.00
59103;BME280;43999;51.660;5.616;2023-05-21T05:38:10;101546.31;;;13.27;100.00
59103;BME280;43999;51.660;5.616;2023-05-21T05:40:39;101553.97;;;13.32;100.00
59103;BME280;43999;51.660;5.616;2023-05-21T05:43:07;101545.09;;;13.35;100.00
59103;BME280;43999;51.660;5.616;2023-05-21T05:45:34;101544.75;;;13.41;100.00
59103;BME280;43999;51.660;5.616;2023-05-21T05:48:08;101552.41;;;13.45;100.00
59103;BME280;43999;51.660;5.616;2023-05-21T05:50:35;101553.00;;;13.51;100.00
59103;BME280;43999;51.660;5.616;2023-05-21T05:53:03;101543.66;;;13.61;100.00
59103;BME280;43999;51.660;5.616;2023-05-21T05:55:30;101543.41;;;13.66;100.00
59103;BME280;43999;51.660;5.616;2023-05-21T05:57:58;101544.25;;;13.66;100.00
59103;BME280;43999;51.660;5.616;2023-05-21T06:00:26;101537.03;;;13.70;100.00
59103;BME280;43999;51.660;5.616;2023-05-21T06:02:55;101551.38;;;13.80;100.00
59103;BME280;43999;51.660;5.616;2023-05-21T06:05:24;101555.47;;;13.86;100.00
59103;BME280;43999;51.660;5.616;2023-05-21T06:07:52;101555.78;;;13.95;100.00
59103;BME280;43999;51.660;5.616;2023-05-21T06:10:19;101562.25;;;14.06;100.00
59103;BME280;43999;51.660;5.616;2023-05-21T06:12:47;101558.81;;;14.20;100.00
59103;BME280;43999;51.660;5.616;2023-05-21T06:15:14;101551.66;;;14.22;100.00
59103;BME280;43999;51.660;5.616;2023-05-21T06:17:42;101548.91;;;14.39;100.00
59103;BME280;43999;51.660;5.616;2023-05-21T06:20:11;101558.22;;;14.45;100.00
59103;BME280;43999;51.660;5.616;2023-05-21T06:22:39;101551.66;;;14.52;100.00
59103;BME280;43999;51.660;5.616;2023-05-21T06:25:08;101552.91;;;14.61;100.00
59103;BME280;43999;51.660;5.616;2023-05-21T06:27:37;101546.34;;;14.68;100.00
59103;BME280;43999;51.660;5.616;2023-05-21T06:30:10;101541.25;;;14.79;100.00
59103;BME280;43999;51.660;5.616;2023-05-21T06:32:38;101548.63;;;14.88;100.00
59103;BME280;43999;51.660;5.616;2023-05-21T06:35:06;101555.59;;;15.04;100.00
59103;BME280;43999;51.660;5.616;2023-05-21T06:37:34;101546.19;;;15.00;100.00
59103;BME280;43999;51.660;5.616;2023-05-21T06:40:04;101551.56;;;15.13;100.00
59103;BME280;43999;51.660;5.616;2023-05-21T06:42:33;101549.56;;;15.31;100.00
59103;BME280;43999;51.660;5.616;2023-05-21T06:45:35;101557.47;;;15.45;100.00
59103;BME280;43999;51.660;5.616;2023-05-21T06:48:27;101547.34;;;15.52;100.00
59103;BME280;43999;51.660;5.616;2023-05-21T06:50:54;101546.22;;;15.56;100.00
59103;BME280;43999;51.660;5.616;2023-05-21T06:53:23;101553.72;;;15.76;100.00
59103;BME280;43999;51.660;5.616;2023-05-21T06:55:50;101547.47;;;15.92;100.00
59103;BME280;43999;51.660;5.616;2023-05-21T06:58:34;101538.41;;;15.96;100.00
59103;BME280;43999;51.660;5.616;2023-05-21T07:01:01;101542.81;;;15.95;100.00
59103;BME280;43999;51.660;5.616;2023-05-21T07:03:45;101539.88;;;16.00;100.00
59103;BME280;43999;51.660;5.616;2023-05-21T07:06:12;101541.38;;;16.04;100.00
59103;BME280;43999;51.660;5.616;2023-05-21T07:08:39;101538.97;;;16.14;100.00
59103;BME280;43999;51.660;5.616;2023-05-21T07:11:07;101531.59;;;16.19;100.00
59103;BME280;43999;51.660;5.616;2023-05-21T07:13:35;101534.88;;;16.36;100.00
59103;BME280;43999;51.660;5.616;2023-05-21T07:16:04;101531.00;;;16.54;100.00
59103;BME280;43999;51.660;5.616;2023-05-21T07:18:31;101517.03;;;16.65;100.00
59103;BME280;43999;51.660;5.616;2023-05-21T07:20:59;101520.66;;;16.77;100.00
59103;BME280;43999;51.660;5.616;2023-05-21T07:23:27;101523.69;;;16.83;100.00
59103;BME280;43999;51.660;5.616;2023-05-21T07:25:55;101516.22;;;16.90;100.00
59103;BME280;43999;51.660;5.616;2023-05-21T07:28:22;101526.72;;;16.92;100.00
59103;BME280;43999;51.660;5.616;2023-05-21T07:30:50;101518.44;;;16.96;100.00
59103;BME280;43999;51.660;5.616;2023-05-21T07:33:22;101510.38;;;17.11;100.00
59103;BME280;43999;51.660;5.616;2023-05-21T07:35:51;101524.41;;;17.24;100.00
59103;BME280;43999;51.660;5.616;2023-05-21T07:38:18;101517.00;;;17.29;100.00
59103;BME280;43999;51.660;5.616;2023-05-21T07:40:45;101519.00;;;17.38;100.00
59103;BME280;43999;51.660;5.616;2023-05-21T07:43:14;101525.13;;;17.39;100.00
59103;BME280;43999;51.660;5.616;2023-05-21T07:45:41;101522.88;;;17.46;100.00
59103;BME280;43999;51.660;5.616;2023-05-21T07:48:09;101529.69;;;17.74;100.00
59103;BME280;43999;51.660;5.616;2023-05-21T07:50:48;101521.41;;;17.79;100.00
59103;BME280;43999;51.660;5.616;2023-05-21T07:53:18;101517.53;;;17.83;100.00
59103;BME280;43999;51.660;5.616;2023-05-21T07:55:46;101519.66;;;17.90;100.00
59103;BME280;43999;51.660;5.616;2023-05-21T07:58:17;101517.91;;;18.02;100.00
59103;BME280;43999;51.660;5.616;2023-05-21T08:00:47;101518.63;;;18.04;100.00
59103;BME280;43999;51.660;5.616;2023-05-21T08:03:15;101517.44;;;18.08;100.00
59103;BME280;43999;51.660;5.616;2023-05-21T08:05:44;101516.88;;;18.16;100.00
59103;BME280;43999;51.660;5.616;2023-05-21T08:08:19;101523.31;;;18.36;100.00
59103;BME280;43999;51.660;5.616;2023-05-21T08:10:49;101524.34;;;18.58;98.51
59103;BME280;43999;51.660;5.616;2023-05-21T08:13:17;101512.06;;;18.79;96.91
59103;BME280;43999;51.660;5.616;2023-05-21T08:15:47;101515.09;;;18.97;96.14
59103;BME280;43999;51.660;5.616;2023-05-21T08:18:19;101528.72;;;19.15;93.82
59103;BME280;43999;51.660;5.616;2023-05-21T08:20:50;101517.59;;;19.33;93.01
59103;BME280;43999;51.660;5.616;2023-05-21T08:23:19;101511.31;;;19.34;92.60
59103;BME280;43999;51.660;5.616;2023-05-21T08:25:52;101510.94;;;19.39;92.83
59103;BME280;43999;51.660;5.616;2023-05-21T08:28:21;101506.97;;;19.44;93.64
59103;BME280;43999;51.660;5.616;2023-05-21T08:30:50;101506.88;;;19.67;91.52
59103;BME280;43999;51.660;5.616;2023-05-21T08:33:18;101510.13;;;19.82;92.73
59103;BME280;43999;51.660;5.616;2023-05-21T08:35:47;101510.50;;;20.10;90.17
59103;BME280;43999;51.660;5.616;2023-05-21T08:38:28;101507.44;;;20.35;86.67
59103;BME280;43999;51.660;5.616;2023-05-21T08:41:10;101504.34;;;20.30;89.37
59103;BME280;43999;51.660;5.616;2023-05-21T08:43:38;101495.63;;;20.49;88.23
59103;BME280;43999;51.660;5.616;2023-05-21T08:46:08;101508.69;;;20.73;85.60
59103;BME280;43999;51.660;5.616;2023-05-21T08:48:38;101504.56;;;21.00;83.75
59103;BME280;43999;51.660;5.616;2023-05-21T08:51:06;101497.91;;;21.16;84.38
59103;BME280;43999;51.660;5.616;2023-05-21T08:53:40;101503.56;;;21.32;84.69
59103;BME280;43999;51.660;5.616;2023-05-21T08:56:09;101500.41;;;21.67;80.79
59103;BME280;43999;51.660;5.616;2023-05-21T08:58:46;101500.16;;;22.00;78.38
59103;BME280;43999;51.660;5.616;2023-05-21T09:01:18;101502.09;;;22.08;78.09
59103;BME280;43999;51.660;5.616;2023-05-21T09:03:59;101492.53;;;22.15;77.25
59103;BME280;43999;51.660;5.616;2023-05-21T09:06:46;101493.38;;;22.35;74.85
59103;BME280;43999;51.660;5.616;2023-05-21T09:09:32;101486.63;;;22.41;76.05
59103;BME280;43999;51.660;5.616;2023-05-21T09:12:06;101496.53;;;22.58;76.76
59103;BME280;43999;51.660;5.616;2023-05-21T09:14:36;101485.59;;;22.89;72.69
59103;BME280;43999;51.660;5.616;2023-05-21T09:17:15;101485.97;;;22.94;72.11
59103;BME280;43999;51.660;5.616;2023-05-21T09:20:14;101482.72;;;23.00;70.52
59103;BME280;43999;51.660;5.616;2023-05-21T09:22:50;101486.72;;;22.86;72.53
59103;BME280;43999;51.660;5.616;2023-05-21T09:25:25;101487.00;;;22.83;71.01
59103;BME280;43999;51.660;5.616;2023-05-21T09:28:01;101477.31;;;22.54;73.56
59103;BME280;43999;51.660;5.616;2023-05-21T09:30:28;101481.25;;;22.50;76.39
59103;BME280;43999;51.660;5.616;2023-05-21T09:32:59;101476.38;;;22.73;73.93
59103;BME280;43999;51.660;5.616;2023-05-21T09:35:28;101473.81;;;22.82;73.07
59103;BME280;43999;51.660;5.616;2023-05-21T09:37:55;101473.34;;;22.86;72.71
59103;BME280;43999;51.660;5.616;2023-05-21T09:40:23;101476.84;;;22.97;71.03
59103;BME280;43999;51.660;5.616;2023-05-21T09:42:54;101477.34;;;22.82;72.13
59103;BME280;43999;51.660;5.616;2023-05-21T09:45:27;101480.19;;;22.71;72.77
59103;BME280;43999;51.660;5.616;2023-05-21T09:47:57;101473.03;;;22.62;74.33
59103;BME280;43999;51.660;5.616;2023-05-21T09:50:26;101469.50;;;22.71;76.33
59103;BME280;43999;51.660;5.616;2023-05-21T09:52:54;101477.53;;;22.99;72.59
59103;BME280;43999;51.660;5.616;2023-05-21T09:55:25;101472.78;;;23.20;71.08
59103;BME280;43999;51.660;5.616;2023-05-21T09:57:53;101458.69;;;23.46;70.41
59103;BME280;43999;51.660;5.616;2023-05-21T10:00:22;101460.81;;;23.60;68.70
59103;BME280;43999;51.660;5.616;2023-05-21T10:02:56;101463.25;;;23.72;70.86
59103;BME280;43999;51.660;5.616;2023-05-21T10:05:28;101454.47;;;23.79;66.75
59103;BME280;43999;51.660;5.616;2023-05-21T10:08:02;101460.28;;;23.75;66.99
59103;BME280;43999;51.660;5.616;2023-05-21T10:10:31;101453.09;;;23.75;67.69
59103;BME280;43999;51.660;5.616;2023-05-21T10:13:07;101460.81;;;23.78;67.83
59103;BME280;43999;51.660;5.616;2023-05-21T10:15:43;101463.97;;;23.74;66.47
59103;BME280;43999;51.660;5.616;2023-05-21T10:18:18;101451.00;;;23.61;67.87
59103;BME280;43999;51.660;5.616;2023-05-21T10:20:50;101450.38;;;23.85;66.38
59103;BME280;43999;51.660;5.616;2023-05-21T10:23:19;101446.59;;;23.78;66.20
59103;BME280;43999;51.660;5.616;2023-05-21T10:25:49;101457.72;;;23.47;66.81
59103;BME280;43999;51.660;5.616;2023-05-21T10:28:19;101448.22;;;23.35;68.97
59103;BME280;43999;51.660;5.616;2023-05-21T10:30:46;101449.81;;;23.27;69.08
59103;BME280;43999;51.660;5.616;2023-05-21T10:33:17;101451.03;;;23.51;69.35
59103;BME280;43999;51.660;5.616;2023-05-21T10:35:49;101446.97;;;23.83;69.50
59103;BME280;43999;51.660;5.616;2023-05-21T10:38:21;101447.59;;;24.21;67.27
59103;BME280;43999;51.660;5.616;2023-05-21T10:41:05;101453.31;;;24.52;65.32
59103;BME280;43999;51.660;5.616;2023-05-21T10:47:03;101433.75;;;24.95;63.76
59103;BME280;43999;51.660;5.616;2023-05-21T10:53:38;101423.81;;;25.30;60.38
59103;BME280;43999;51.660;5.616;2023-05-21T10:59:47;101430.22;;;25.62;58.54
59103;BME280;43999;51.660;5.616;2023-05-21T11:02:18;101423.66;;;25.48;59.36
59103;BME280;43999;51.660;5.616;2023-05-21T11:04:58;101423.81;;;25.46;58.29
59103;BME280;43999;51.660;5.616;2023-05-21T11:07:50;101417.59;;;25.37;59.77
59103;BME280;43999;51.660;5.616;2023-05-21T11:10:39;101414.63;;;25.49;59.15
59103;BME280;43999;51.660;5.616;2023-05-21T11:13:27;101413.94;;;25.55;59.62
59103;BME280;43999;51.660;5.616;2023-05-21T11:16:17;101412.09;;;25.72;60.09
59103;BME280;43999;51.660;5.616;2023-05-21T11:21:35;101411.91;;;26.06;57.71
59103;BME280;43999;51.660;5.616;2023-05-21T11:24:06;101410.56;;;26.10;58.40
59103;BME280;43999;51.660;5.616;2023-05-21T11:29:14;101386.03;;;26.22;57.38
59103;BME280;43999;51.660;5.616;2023-05-21T11:31:48;101393.41;;;26.28;55.64
59103;BME280;43999;51.660;5.616;2023-05-21T11:34:43;101396.31;;;26.02;57.78
59103;BME280;43999;51.660;5.616;2023-05-21T11:40:18;101372.53;;;25.66;58.41
59103;BME280;43999;51.660;5.616;2023-05-21T11:42:54;101372.84;;;25.46;59.13
59103;BME280;43999;51.660;5.616;2023-05-21T11:45:28;101378.19;;;25.21;60.57
59103;BME280;43999;51.660;5.616;2023-05-21T11:47:57;101380.84;;;25.21;62.21
59103;BME280;43999;51.660;5.616;2023-05-21T11:50:26;101379.88;;;25.39;61.67
59103;BME280;43999;51.660;5.616;2023-05-21T11:52:56;101384.59;;;25.37;60.35
59103;BME280;43999;51.660;5.616;2023-05-21T11:55:26;101376.38;;;25.30;60.69
59103;BME280;43999;51.660;5.616;2023-05-21T11:57:53;101365.75;;;25.04;62.09
59103;BME280;43999;51.660;5.616;2023-05-21T12:00:21;101373.97;;;24.94;62.33
59103;BME280;43999;51.660;5.616;2023-05-21T12:02:52;101365.06;;;24.94;62.76
59103;BME280;43999;51.660;5.616;2023-05-21T12:05:22;101370.78;;;24.99;62.46
59103;BME280;43999;51.660;5.616;2023-05-21T12:07:50;101372.94;;;25.03;62.75
59103;BME280;43999;51.660;5.616;2023-05-21T12:10:21;101363.91;;;25.13;62.49
59103;BME280;43999;51.660;5.616;2023-05-21T12:12:49;101371.63;;;25.16;62.79
59103;BME280;43999;51.660;5.616;2023-05-21T12:15:25;101368.13;;;25.15;62.31
59103;BME280;43999;51.660;5.616;2023-05-21T12:17:54;101358.53;;;25.04;62.73
59103;BME280;43999;51.660;5.616;2023-05-21T12:20:22;101360.88;;;24.99;62.02
59103;BME280;43999;51.660;5.616;2023-05-21T12:22:52;101363.72;;;24.90;62.55
59103;BME280;43999;51.660;5.616;2023-05-21T12:25:20;101368.88;;;24.75;64.60
59103;BME280;43999;51.660;5.616;2023-05-21T12:27:48;101359.84;;;24.76;63.46
59103;BME280;43999;51.660;5.616;2023-05-21T12:30:24;101356.13;;;24.77;64.12
59103;BME280;43999;51.660;5.616;2023-05-21T12:32:52;101352.47;;;24.78;63.21
59103;BME280;43999;51.660;5.616;2023-05-21T12:35:21;101337.75;;;24.82;63.99
59103;BME280;43999;51.660;5.616;2023-05-21T12:37:50;101337.75;;;24.90;63.32
59103;BME280;43999;51.660;5.616;2023-05-21T12:40:19;101327.19;;;24.97;63.48
59103;BME280;43999;51.660;5.616;2023-05-21T12:42:46;101341.28;;;24.99;63.96
59103;BME280;43999;51.660;5.616;2023-05-21T12:45:14;101328.22;;;25.04;64.53
59103;BME280;43999;51.660;5.616;2023-05-21T12:47:47;101334.56;;;25.11;63.87
59103;BME280;43999;51.660;5.616;2023-05-21T12:50:19;101330.56;;;25.15;63.63
59103;BME280;43999;51.660;5.616;2023-05-21T12:52:47;101333.75;;;25.19;63.46
59103;BME280;43999;51.660;5.616;2023-05-21T12:55:16;101338.13;;;25.20;63.72
59103;BME280;43999;51.660;5.616;2023-05-21T12:57:43;101328.91;;;25.22;61.96
59103;BME280;43999;51.660;5.616;2023-05-21T13:00:13;101328.22;;;25.12;62.40
59103;BME280;43999;51.660;5.616;2023-05-21T13:02:42;101341.78;;;25.11;63.63
59103;BME280;43999;51.660;5.616;2023-05-21T13:05:16;101341.47;;;25.22;64.73
59103;BME280;43999;51.660;5.616;2023-05-21T13:07:44;101346.53;;;25.50;63.14
59103;BME280;43999;51.660;5.616;2023-05-21T13:10:17;101350.03;;;25.75;63.20
59103;BME280;43999;51.660;5.616;2023-05-21T13:12:45;101348.97;;;26.01;61.99
59103;BME280;43999;51.660;5.616;2023-05-21T13:15:13;101359.66;;;26.25;59.87
59103;BME280;43999;51.660;5.616;2023-05-21T13:17:41;101361.47;;;26.33;59.83
59103;BME280;43999;51.660;5.616;2023-05-21T13:22:40;101356.94;;;26.73;57.60
59103;BME280;43999;51.660;5.616;2023-05-21T13:25:18;101352.59;;;26.95;56.27
59103;BME280;43999;51.660;5.616;2023-05-21T13:27:49;101356.59;;;26.76;56.44